Time;durP1;ratioP1;P1;durP2;ratioP2;P2;SDS_P1;SDS_P2;PMS_P1;PMS_P2;Temp;Humidity;BMP_temperature;BMP_pressure;BME280_temperature;BME280_humidity;BME280_pressure;Samples;Min_cycle;Max_cycle;Signal;HPM_P1;HPM_P2
2021/09/11 00:01:35;;;;;;;9.77;8.85;;;19.30;99.90;;;;;;5086816;28;20024;-40
2021/09/11 00:04:00;;;;;;;9.43;7.90;;;19.30;99.90;;;;;;5107706;28;20073;-34
2021/09/11 00:06:26;;;;;;;9.95;9.05;;;19.30;99.90;;;;;;5109399;28;20420;-40
2021/09/11 00:08:51;;;;;;;10.02;9.13;;;19.30;99.90;;;;;;5108585;28;20118;-38
2021/09/11 00:11:17;;;;;;;10.57;9.52;;;19.30;99.90;;;;;;5109841;28;20103;-38
2021/09/11 00:13:42;;;;;;;10.57;9.40;;;19.20;99.90;;;;;;5108951;28;20394;-40
2021/09/11 00:16:08;;;;;;;10.20;9.00;;;19.20;99.90;;;;;;5109113;28;20491;-40
2021/09/11 00:18:34;;;;;;;10.48;9.32;;;19.10;99.90;;;;;;5110495;28;20026;-37
2021/09/11 00:21:05;;;;;;;10.98;9.88;;;19.10;99.90;;;;;;5108441;28;20050;-39
2021/09/11 00:23:31;;;;;;;10.75;9.70;;;19.10;99.90;;;;;;5110179;28;20012;-38
2021/09/11 00:26:00;;;;;;;10.95;9.80;;;19.10;99.90;;;;;;5110428;28;20033;-39
2021/09/11 00:28:26;;;;;;;10.15;9.05;;;19.20;99.90;;;;;;5113319;28;20072;-40
2021/09/11 00:30:52;;;;;;;12.32;9.70;;;19.20;99.90;;;;;;5111991;28;20057;-39
2021/09/11 00:33:17;;;;;;;10.85;9.48;;;19.20;99.90;;;;;;5114083;28;20036;-38
2021/09/11 00:35:46;;;;;;;12.68;10.57;;;19.20;99.90;;;;;;5112983;28;20015;-38
2021/09/11 00:38:11;;;;;;;10.75;9.77;;;19.10;99.90;;;;;;5114200;28;20024;-37
2021/09/11 00:40:37;;;;;;;11.43;10.10;;;19.20;99.90;;;;;;5110947;28;20031;-37
2021/09/11 00:43:02;;;;;;;11.65;10.55;;;19.10;99.90;;;;;;5111593;28;20028;-40
2021/09/11 00:45:28;;;;;;;11.70;10.60;;;19.10;99.90;;;;;;5113986;28;20386;-39
2021/09/11 00:47:53;;;;;;;11.80;10.60;;;19.20;99.90;;;;;;5112532;28;20032;-37
2021/09/11 00:50:19;;;;;;;11.57;10.38;;;19.20;99.90;;;;;;5113254;28;20113;-37
2021/09/11 00:52:46;;;;;;;10.55;9.45;;;19.20;99.90;;;;;;5112730;28;20089;-39
2021/09/11 00:55:13;;;;;;;10.15;8.70;;;19.10;99.90;;;;;;5111322;28;20026;-35
2021/09/11 00:57:43;;;;;;;11.07;9.95;;;19.10;99.90;;;;;;5111565;28;20023;-39
2021/09/11 01:00:09;;;;;;;10.38;9.23;;;19.10;99.90;;;;;;5111723;28;20083;-39
2021/09/11 01:02:35;;;;;;;12.75;10.02;;;19.20;99.90;;;;;;5110746;28;20043;-37
2021/09/11 01:05:06;;;;;;;10.85;9.75;;;19.20;99.90;;;;;;5111004;28;20487;-35
2021/09/11 01:07:32;;;;;;;10.63;9.45;;;19.20;99.90;;;;;;5112503;28;20104;-38
2021/09/11 01:09:59;;;;;;;13.85;9.40;;;19.20;99.90;;;;;;5112559;28;20028;-39
2021/09/11 01:12:27;;;;;;;10.75;9.65;;;19.10;99.90;;;;;;5113169;28;20012;-37
2021/09/11 01:14:52;;;;;;;10.85;9.75;;;19.10;99.90;;;;;;5111935;28;20047;-40
2021/09/11 01:17:18;;;;;;;10.98;9.23;;;19.10;99.90;;;;;;5112397;28;20011;-36
2021/09/11 01:19:46;;;;;;;10.88;9.80;;;19.10;99.90;;;;;;5108951;28;20039;-38
2021/09/11 01:22:15;;;;;;;8.75;7.95;;;19.00;99.90;;;;;;5100416;28;20024;-35
2021/09/11 01:25:10;;;;;;;12.10;10.75;;;19.00;99.90;;;;;;5112164;28;20023;-36
2021/09/11 01:27:36;;;;;;;13.40;11.65;;;18.90;99.90;;;;;;5091141;28;20059;-37
2021/09/11 01:30:10;;;;;;;10.55;9.25;;;18.80;99.90;;;;;;5110022;28;20030;-37
2021/09/11 01:32:36;;;;;;;10.93;9.55;;;18.80;99.90;;;;;;5110842;28;20027;-40
2021/09/11 01:35:02;;;;;;;8.80;7.93;;;18.80;99.90;;;;;;5111074;28;20022;-39
2021/09/11 01:37:27;;;;;;;9.93;8.93;;;18.70;99.90;;;;;;5109301;28;20362;-39
2021/09/11 01:39:55;;;;;;;12.98;9.10;;;18.60;99.90;;;;;;5110673;28;20126;-39
2021/09/11 01:42:26;;;;;;;11.38;9.20;;;18.60;99.90;;;;;;5110926;28;20012;-37
2021/09/11 01:45:12;;;;;;;11.00;9.07;;;18.60;99.90;;;;;;5108777;28;20497;-36
2021/09/11 01:47:39;;;;;;;11.63;9.50;;;18.50;99.90;;;;;;5110077;28;20083;-38
2021/09/11 01:50:06;;;;;;;11.82;8.77;;;18.40;99.90;;;;;;5111763;28;20083;-40
2021/09/11 01:52:32;;;;;;;12.80;9.20;;;18.40;99.90;;;;;;5111711;28;20015;-39
2021/09/11 01:54:58;;;;;;;10.55;9.13;;;18.40;99.90;;;;;;5110309;28;20035;-36
2021/09/11 01:57:23;;;;;;;11.70;8.95;;;18.30;99.90;;;;;;5112704;28;20019;-36
2021/09/11 01:59:49;;;;;;;10.73;8.55;;;18.30;99.90;;;;;;5109876;28;20035;-38
2021/09/11 02:02:14;;;;;;;10.88;7.95;;;18.30;99.90;;;;;;5111319;28;20028;-37
2021/09/11 02:04:40;;;;;;;10.30;7.93;;;18.30;99.90;;;;;;5110093;28;20038;-37
2021/09/11 02:07:07;;;;;;;11.75;8.48;;;18.30;99.90;;;;;;5108481;28;20032;-39
2021/09/11 02:09:34;;;;;;;10.82;8.65;;;18.20;99.90;;;;;;5110218;28;20417;-39
2021/09/11 02:12:00;;;;;;;10.13;8.00;;;18.20;99.90;;;;;;5109495;28;20023;-37
2021/09/11 02:14:26;;;;;;;9.25;8.07;;;18.20;99.90;;;;;;5109951;28;20046;-38
2021/09/11 02:16:52;;;;;;;9.07;7.53;;;18.10;99.90;;;;;;5111284;28;20016;-35
2021/09/11 02:19:17;;;;;;;7.72;6.72;;;18.20;99.90;;;;;;5110978;28;20054;-39
2021/09/11 02:21:43;;;;;;;13.23;9.15;;;18.10;99.90;;;;;;5111028;28;20115;-38
2021/09/11 02:24:09;;;;;;;10.45;8.75;;;18.10;99.90;;;;;;5110546;28;20020;-39
2021/09/11 02:26:35;;;;;;;11.20;9.00;;;18.00;99.90;;;;;;5111012;28;20477;-37
2021/09/11 02:29:01;;;;;;;11.50;9.93;;;18.00;99.90;;;;;;5111133;28;20012;-38
2021/09/11 02:31:26;;;;;;;11.52;8.95;;;18.00;99.90;;;;;;5111878;28;20022;-34
2021/09/11 02:33:52;;;;;;;11.40;8.27;;;17.90;99.90;;;;;;5110364;28;20606;-37
2021/09/11 02:36:18;;;;;;;8.32;6.82;;;17.90;99.90;;;;;;5111545;28;20103;-37
2021/09/11 02:38:44;;;;;;;9.57;7.03;;;17.90;99.90;;;;;;5110745;28;20039;-36
2021/09/11 02:41:10;;;;;;;8.93;7.50;;;17.80;99.90;;;;;;5110309;28;20092;-40
2021/09/11 02:43:35;;;;;;;11.30;7.75;;;17.80;99.90;;;;;;5111046;28;20015;-39
2021/09/11 02:46:01;;;;;;;10.50;8.55;;;17.80;99.90;;;;;;5110764;28;20432;-36
2021/09/11 02:48:26;;;;;;;10.13;7.65;;;17.80;99.90;;;;;;5110490;28;20019;-40
2021/09/11 02:50:52;;;;;;;7.32;6.47;;;17.80;99.90;;;;;;5110269;28;20026;-39
2021/09/11 02:53:17;;;;;;;8.02;7.07;;;17.80;99.90;;;;;;5111730;28;20027;-39
2021/09/11 02:55:43;;;;;;;10.75;7.75;;;17.70;99.90;;;;;;5109657;28;20026;-37
2021/09/11 02:58:09;;;;;;;10.18;8.38;;;17.70;99.90;;;;;;5110531;28;20016;-33
2021/09/11 03:00:34;;;;;;;9.93;7.05;;;17.60;99.90;;;;;;5111285;28;20034;-36
2021/09/11 03:03:03;;;;;;;9.48;7.63;;;17.60;99.90;;;;;;5109998;28;20410;-39
2021/09/11 03:05:28;;;;;;;8.93;7.43;;;17.60;99.90;;;;;;5110932;28;20016;-38
2021/09/11 03:07:54;;;;;;;8.20;7.13;;;17.60;99.90;;;;;;5110232;28;20076;-33
2021/09/11 03:10:22;;;;;;;11.48;8.05;;;17.60;99.90;;;;;;5109623;28;20493;-37
2021/09/11 03:12:50;;;;;;;11.88;7.55;;;17.60;99.90;;;;;;5108588;28;20036;-39
2021/09/11 03:15:16;;;;;;;10.95;8.07;;;17.50;99.90;;;;;;5108856;28;20050;-39
2021/09/11 03:17:41;;;;;;;11.02;8.20;;;17.50;99.90;;;;;;5108857;28;20012;-38
2021/09/11 03:20:13;;;;;;;9.00;7.13;;;17.50;99.90;;;;;;5108416;28;20425;-40
2021/09/11 03:22:39;;;;;;;11.27;8.32;;;17.40;99.90;;;;;;5107417;28;20036;-39
2021/09/11 03:25:07;;;;;;;14.10;9.50;;;17.40;99.90;;;;;;5109635;28;20039;-36
2021/09/11 03:27:33;;;;;;;9.82;7.57;;;17.40;99.90;;;;;;5110661;28;20019;-37
2021/09/11 03:29:58;;;;;;;12.70;9.23;;;17.40;99.90;;;;;;5110102;28;20027;-38
2021/09/11 03:32:24;;;;;;;9.40;8.18;;;17.30;99.90;;;;;;5110178;28;20546;-37
2021/09/11 03:34:49;;;;;;;10.57;8.52;;;17.30;99.90;;;;;;5109977;28;20028;-38
2021/09/11 03:37:16;;;;;;;10.20;8.55;;;17.30;99.90;;;;;;5110011;28;20022;-38
2021/09/11 03:39:44;;;;;;;10.20;8.27;;;17.30;99.90;;;;;;5110066;28;20044;-39
2021/09/11 03:42:10;;;;;;;10.18;8.93;;;17.30;99.90;;;;;;5109667;28;20050;-39
2021/09/11 03:44:35;;;;;;;10.27;8.85;;;17.30;99.90;;;;;;5109928;28;20051;-33
2021/09/11 03:47:01;;;;;;;12.55;10.07;;;17.20;99.90;;;;;;5109349;28;20016;-37
2021/09/11 03:49:26;;;;;;;14.55;10.15;;;17.20;99.90;;;;;;5110386;28;20485;-36
2021/09/11 03:51:52;;;;;;;11.70;9.77;;;17.20;99.90;;;;;;5109285;28;20110;-37
2021/09/11 03:54:17;;;;;;;11.20;9.13;;;17.20;99.90;;;;;;5110040;28;20024;-37
2021/09/11 03:56:43;;;;;;;12.35;9.23;;;17.20;99.90;;;;;;5109658;28;20032;-36
2021/09/11 03:59:08;;;;;;;12.13;9.18;;;17.30;99.90;;;;;;5109534;28;20405;-36
2021/09/11 04:01:34;;;;;;;11.50;9.20;;;17.30;99.90;;;;;;5112736;28;20024;-38
2021/09/11 04:03:59;;;;;;;10.95;9.13;;;17.30;99.90;;;;;;5113339;28;20609;-37
2021/09/11 04:06:25;;;;;;;11.35;9.43;;;17.30;99.90;;;;;;5113930;28;20058;-37
2021/09/11 04:08:50;;;;;;;11.88;9.52;;;17.30;99.90;;;;;;5112937;28;20024;-39
2021/09/11 04:11:16;;;;;;;10.55;8.95;;;17.30;99.90;;;;;;5114186;28;20050;-38
2021/09/11 04:13:44;;;;;;;13.35;9.73;;;17.40;99.90;;;;;;5113075;28;20039;-37
2021/09/11 04:16:10;;;;;;;12.50;9.93;;;17.40;99.90;;;;;;5113908;28;20023;-39
2021/09/11 04:18:35;;;;;;;12.00;9.90;;;17.30;99.90;;;;;;5112319;28;20255;-38
2021/09/11 04:21:01;;;;;;;11.45;10.20;;;17.40;99.90;;;;;;5111734;28;20040;-40
2021/09/11 04:23:26;;;;;;;10.73;9.60;;;17.40;99.90;;;;;;5111859;28;20019;-39
2021/09/11 04:25:52;;;;;;;12.27;10.85;;;17.40;99.90;;;;;;5111379;28;20023;-38
2021/09/11 04:28:17;;;;;;;10.68;9.57;;;17.40;99.90;;;;;;5112447;28;20490;-37
2021/09/11 04:30:43;;;;;;;15.77;11.02;;;17.50;99.90;;;;;;5113283;28;20413;-37
2021/09/11 04:33:08;;;;;;;10.82;9.63;;;17.40;99.90;;;;;;5110917;28;20027;-35
2021/09/11 04:35:34;;;;;;;13.75;10.82;;;17.40;99.90;;;;;;5112335;28;20031;-36
2021/09/11 04:38:02;;;;;;;10.60;9.50;;;17.40;99.90;;;;;;5111330;28;20020;-36
2021/09/11 04:40:28;;;;;;;13.93;11.52;;;17.40;99.90;;;;;;5104545;28;20032;-37
2021/09/11 04:42:55;;;;;;;13.88;11.18;;;17.40;99.90;;;;;;5113386;28;20019;-36
2021/09/11 04:45:21;;;;;;;10.60;9.10;;;17.40;99.90;;;;;;5113042;28;20015;-36
2021/09/11 04:47:46;;;;;;;11.65;10.32;;;17.50;99.90;;;;;;5112544;28;20389;-38
2021/09/11 04:50:12;;;;;;;12.63;10.00;;;17.50;99.90;;;;;;5113225;28;20019;-38
2021/09/11 04:52:37;;;;;;;11.80;9.77;;;17.50;99.90;;;;;;5113022;28;20494;-37
2021/09/11 04:55:03;;;;;;;14.25;11.25;;;17.60;99.90;;;;;;5112015;28;20329;-36
2021/09/11 04:57:29;;;;;;;14.07;12.13;;;17.60;99.90;;;;;;5113096;28;20487;-39
2021/09/11 04:59:54;;;;;;;13.93;11.13;;;17.60;99.90;;;;;;5112717;28;20040;-39
2021/09/11 05:02:23;;;;;;;13.50;11.18;;;17.50;99.90;;;;;;5112888;28;20102;-40
2021/09/11 05:04:48;;;;;;;13.00;10.13;;;17.50;99.90;;;;;;5112523;28;20039;-35
2021/09/11 05:07:14;;;;;;;13.27;9.63;;;17.50;99.90;;;;;;5113425;28;20032;-36
2021/09/11 05:09:39;;;;;;;13.48;10.07;;;17.50;99.90;;;;;;5112278;28;20112;-39
2021/09/11 05:12:06;;;;;;;13.05;11.05;;;17.60;99.90;;;;;;5113261;28;20471;-35
2021/09/11 05:14:31;;;;;;;15.13;11.80;;;17.50;99.90;;;;;;5113075;28;20437;-39
2021/09/11 05:16:57;;;;;;;12.45;10.05;;;17.50;99.90;;;;;;5103165;28;20084;-39
2021/09/11 05:19:23;;;;;;;11.77;9.77;;;17.50;99.90;;;;;;5094388;28;20431;-37
2021/09/11 05:21:49;;;;;;;13.38;9.77;;;17.50;99.90;;;;;;5111840;28;20054;-39
2021/09/11 05:24:16;;;;;;;12.77;11.35;;;17.50;99.90;;;;;;5113688;28;20035;-37
2021/09/11 05:26:45;;;;;;;14.45;11.98;;;17.50;99.90;;;;;;5112424;28;21093;-40
2021/09/11 05:29:10;;;;;;;15.75;11.05;;;17.50;99.90;;;;;;5111736;28;20027;-36
2021/09/11 05:31:36;;;;;;;12.77;9.80;;;17.40;99.90;;;;;;5111494;28;20024;-39
2021/09/11 05:34:05;;;;;;;9.27;8.10;;;17.40;99.90;;;;;;5110866;28;20019;-40
2021/09/11 05:36:33;;;;;;;10.90;8.80;;;17.50;99.90;;;;;;5110394;28;20464;-37
2021/09/11 05:39:00;;;;;;;11.55;9.52;;;17.50;99.90;;;;;;5111105;28;20481;-37
2021/09/11 05:41:25;;;;;;;9.70;8.45;;;17.60;99.90;;;;;;5112378;28;20052;-37
2021/09/11 05:43:51;;;;;;;9.52;8.52;;;17.60;99.90;;;;;;5111780;28;20475;-39
2021/09/11 05:46:17;;;;;;;8.98;7.57;;;17.60;99.90;;;;;;5112661;28;20034;-39
2021/09/11 05:48:42;;;;;;;11.82;9.48;;;17.70;99.90;;;;;;5111429;28;20344;-37
2021/09/11 05:51:08;;;;;;;11.05;8.27;;;17.70;99.90;;;;;;5111532;28;20022;-33
2021/09/11 05:53:34;;;;;;;10.27;8.38;;;17.70;99.90;;;;;;5112828;28;20180;-36
2021/09/11 05:56:00;;;;;;;9.35;8.45;;;17.70;99.90;;;;;;5111923;28;20047;-38
2021/09/11 05:58:25;;;;;;;14.00;9.80;;;17.70;99.90;;;;;;5111818;28;20032;-39
2021/09/11 06:00:51;;;;;;;9.98;8.13;;;17.70;99.90;;;;;;5111986;28;20110;-38
2021/09/11 06:03:17;;;;;;;11.48;9.38;;;17.70;99.90;;;;;;5112488;28;20012;-36
2021/09/11 06:05:42;;;;;;;12.07;8.52;;;17.80;99.90;;;;;;5110569;28;20493;-39
2021/09/11 06:08:14;;;;;;;10.57;9.20;;;17.80;99.90;;;;;;5112318;28;20062;-37
2021/09/11 06:10:40;;;;;;;10.45;8.63;;;17.80;99.90;;;;;;5112000;28;20030;-35
2021/09/11 06:13:05;;;;;;;10.02;9.02;;;17.80;99.90;;;;;;5110867;28;20459;-39
2021/09/11 06:15:31;;;;;;;10.52;8.35;;;17.80;99.90;;;;;;5112318;28;20079;-36
2021/09/11 06:17:56;;;;;;;12.25;8.80;;;17.90;99.90;;;;;;5110820;28;20023;-38
2021/09/11 06:20:22;;;;;;;9.35;8.40;;;17.90;99.90;;;;;;5111773;28;20028;-39
2021/09/11 06:22:47;;;;;;;10.10;8.27;;;17.90;99.90;;;;;;5110252;28;20540;-40
2021/09/11 06:25:14;;;;;;;10.13;7.28;;;17.80;99.90;;;;;;5111037;28;20069;-38
2021/09/11 06:27:41;;;;;;;12.38;8.32;;;17.80;99.90;;;;;;5111746;28;20022;-36
2021/09/11 06:30:08;;;;;;;8.82;7.70;;;17.80;99.90;;;;;;5111502;28;20489;-37
2021/09/11 06:32:34;;;;;;;11.15;7.78;;;17.80;99.90;;;;;;5111250;28;20024;-35
2021/09/11 06:35:03;;;;;;;9.13;8.02;;;17.80;99.90;;;;;;5110624;28;20356;-39
2021/09/11 06:37:29;;;;;;;9.25;7.88;;;17.80;99.90;;;;;;5110720;28;20019;-33
2021/09/11 06:39:54;;;;;;;8.07;7.00;;;17.90;99.90;;;;;;5108536;28;20023;-37
2021/09/11 06:42:20;;;;;;;8.50;7.45;;;17.90;99.90;;;;;;5110604;28;20027;-38
2021/09/11 06:44:46;;;;;;;9.73;7.82;;;17.90;99.90;;;;;;5109467;28;20087;-35
2021/09/11 06:47:12;;;;;;;10.93;7.78;;;18.00;99.90;;;;;;5109426;28;20467;-35
2021/09/11 06:49:41;;;;;;;9.82;6.30;;;18.00;99.90;;;;;;5110121;28;20023;-39
2021/09/11 06:52:08;;;;;;;8.07;6.43;;;18.00;99.90;;;;;;5110285;28;20062;-39
2021/09/11 06:54:33;;;;;;;7.18;6.07;;;18.10;99.90;;;;;;5109349;28;20033;-37
2021/09/11 06:56:59;;;;;;;8.00;6.43;;;18.10;99.90;;;;;;5110408;28;20351;-40
2021/09/11 06:59:24;;;;;;;11.02;6.20;;;18.10;99.90;;;;;;5110299;28;20032;-40
2021/09/11 07:01:52;;;;;;;9.52;7.03;;;18.20;99.90;;;;;;5110134;28;20060;-38
2021/09/11 07:04:18;;;;;;;7.20;6.07;;;18.20;99.90;;;;;;5111389;28;20033;-40
2021/09/11 07:06:43;;;;;;;9.73;7.60;;;18.20;99.90;;;;;;5110914;28;20058;-35
2021/09/11 07:09:09;;;;;;;12.52;7.53;;;18.30;99.90;;;;;;5110166;28;20073;-37
2021/09/11 07:11:35;;;;;;;11.68;7.18;;;18.30;99.90;;;;;;5111166;28;20509;-34
2021/09/11 07:14:03;;;;;;;9.15;7.22;;;18.30;99.90;;;;;;5110005;28;20047;-38
2021/09/11 07:16:29;;;;;;;8.45;6.75;;;18.40;99.90;;;;;;5110454;28;20020;-36
2021/09/11 07:18:55;;;;;;;10.45;7.55;;;18.40;99.90;;;;;;5110496;28;20065;-36
2021/09/11 07:21:20;;;;;;;7.78;6.60;;;18.50;99.90;;;;;;5110193;28;20027;-38
2021/09/11 07:23:49;;;;;;;11.50;7.75;;;18.50;99.90;;;;;;5109800;28;20023;-34
2021/09/11 07:26:19;;;;;;;10.80;7.63;;;18.50;99.90;;;;;;5111506;28;20019;-37
2021/09/11 07:28:45;;;;;;;9.10;7.07;;;18.60;99.90;;;;;;5096706;28;20051;-39
2021/09/11 07:31:12;;;;;;;8.80;7.03;;;18.70;99.90;;;;;;5110546;28;20497;-39
2021/09/11 07:33:37;;;;;;;9.35;6.97;;;18.80;99.90;;;;;;5110605;28;20041;-37
2021/09/11 07:36:03;;;;;;;9.07;7.30;;;18.90;99.90;;;;;;5108737;28;20011;-37
2021/09/11 07:38:28;;;;;;;8.57;6.65;;;18.90;99.90;;;;;;5110680;28;20055;-38
2021/09/11 07:40:54;;;;;;;13.48;8.40;;;18.90;99.90;;;;;;5110012;28;20035;-36
2021/09/11 07:43:19;;;;;;;7.72;6.95;;;19.00;99.90;;;;;;5109439;28;20041;-33
2021/09/11 07:45:46;;;;;;;13.23;9.65;;;19.00;99.90;;;;;;5108722;28;20529;-39
2021/09/11 07:48:12;;;;;;;10.57;8.48;;;19.10;99.90;;;;;;5109141;28;20019;-39
2021/09/11 07:50:37;;;;;;;10.15;8.65;;;19.20;99.90;;;;;;5108159;28;20033;-37
2021/09/11 07:53:04;;;;;;;9.38;7.43;;;19.20;99.90;;;;;;5108711;28;20584;-40
2021/09/11 07:55:30;;;;;;;7.72;6.93;;;19.30;99.90;;;;;;5108517;28;20486;-39
2021/09/11 07:57:56;;;;;;;12.02;9.73;;;19.40;99.90;;;;;;5107873;28;20028;-39
2021/09/11 08:00:21;;;;;;;10.73;8.63;;;19.40;99.90;;;;;;5110169;28;20039;-39
2021/09/11 08:02:47;;;;;;;10.75;8.57;;;19.50;99.90;;;;;;5109970;28;20480;-38
2021/09/11 08:05:13;;;;;;;10.65;8.57;;;19.50;99.90;;;;;;5106703;28;20016;-36
2021/09/11 08:07:38;;;;;;;8.30;7.50;;;19.60;99.90;;;;;;5108038;28;20606;-42
2021/09/11 08:10:04;;;;;;;9.68;8.05;;;19.60;99.90;;;;;;5108850;28;20041;-39
2021/09/11 08:12:30;;;;;;;10.43;9.23;;;19.60;99.90;;;;;;5101802;28;20031;-39
2021/09/11 08:14:55;;;;;;;10.77;9.68;;;19.60;99.90;;;;;;5108814;28;20495;-40
2021/09/11 08:17:21;;;;;;;10.07;8.18;;;19.70;99.90;;;;;;5107876;28;20024;-41
2021/09/11 08:19:47;;;;;;;10.30;8.88;;;19.70;99.90;;;;;;5109170;28;20027;-40
2021/09/11 08:22:12;;;;;;;11.00;9.20;;;19.70;99.90;;;;;;5108766;28;20024;-42
2021/09/11 08:24:38;;;;;;;11.02;9.32;;;19.80;99.90;;;;;;5108334;28;20055;-41
2021/09/11 08:27:04;;;;;;;12.60;10.20;;;19.90;99.90;;;;;;5109615;28;20417;-43
2021/09/11 08:29:29;;;;;;;14.05;9.30;;;20.00;99.90;;;;;;5109384;28;20458;-38
2021/09/11 08:31:55;;;;;;;8.95;8.05;;;20.10;99.90;;;;;;5107730;28;20043;-41
2021/09/11 08:34:20;;;;;;;12.20;9.93;;;20.20;99.90;;;;;;5080713;28;20036;-40
2021/09/11 08:36:46;;;;;;;11.68;8.82;;;20.20;99.90;;;;;;5084306;28;20028;-41
2021/09/11 08:39:11;;;;;;;11.57;9.48;;;20.20;99.90;;;;;;5101321;28;20028;-42
2021/09/11 08:41:37;;;;;;;10.95;8.85;;;20.30;99.90;;;;;;5079367;28;20024;-40
2021/09/11 08:44:03;;;;;;;10.38;8.95;;;20.30;99.90;;;;;;5107373;28;20050;-39
2021/09/11 08:46:29;;;;;;;9.63;8.60;;;20.20;99.90;;;;;;5107767;28;20032;-42
2021/09/11 08:48:55;;;;;;;11.75;10.55;;;20.20;99.90;;;;;;5111529;28;20517;-40
2021/09/11 08:51:23;;;;;;;12.85;9.82;;;20.20;99.90;;;;;;5112906;28;20157;-40
2021/09/11 08:53:48;;;;;;;10.60;9.55;;;20.10;99.90;;;;;;5111371;28;20023;-42
2021/09/11 08:56:14;;;;;;;11.45;9.52;;;20.00;99.90;;;;;;5111852;28;20322;-37
2021/09/11 08:58:39;;;;;;;14.00;12.13;;;20.10;99.90;;;;;;5110408;28;20039;-36
2021/09/11 09:01:05;;;;;;;11.05;9.98;;;20.00;99.90;;;;;;5111166;28;20538;-41
2021/09/11 09:03:35;;;;;;;10.77;9.30;;;20.00;99.90;;;;;;5112217;28;20407;-41
2021/09/11 09:06:28;;;;;;;10.00;8.90;;;20.00;99.90;;;;;;5112108;28;20469;-37
2021/09/11 09:09:09;;;;;;;16.10;11.13;;;20.10;99.90;;;;;;5112622;28;20039;-41
2021/09/11 09:11:42;;;;;;;12.95;11.43;;;20.20;99.90;;;;;;5113773;28;20450;-41
2021/09/11 09:14:17;;;;;;;12.57;11.18;;;20.20;99.90;;;;;;5111268;28;20128;-41
2021/09/11 09:16:44;;;;;;;16.38;12.32;;;20.20;99.90;;;;;;5113047;28;20377;-39
2021/09/11 09:19:15;;;;;;;14.82;13.13;;;20.20;99.90;;;;;;5109909;28;20020;-42
2021/09/11 09:21:43;;;;;;;15.10;13.65;;;20.10;99.90;;;;;;5112253;28;20032;-40
2021/09/11 09:24:11;;;;;;;13.23;11.93;;;20.10;99.90;;;;;;5112703;28;20069;-41
2021/09/11 09:26:50;;;;;;;13.38;12.07;;;20.00;99.90;;;;;;5112652;28;20106;-40
2021/09/11 09:29:17;;;;;;;15.10;13.15;;;20.10;99.90;;;;;;5112209;28;20463;-38
2021/09/11 09:31:45;;;;;;;14.00;12.70;;;20.10;99.90;;;;;;5111770;28;20065;-38
2021/09/11 09:34:27;;;;;;;11.50;10.27;;;20.10;99.90;;;;;;5112543;28;20462;-39
2021/09/11 09:36:55;;;;;;;14.07;12.68;;;20.10;99.90;;;;;;5111596;28;20483;-41
2021/09/11 09:39:21;;;;;;;16.23;14.02;;;20.20;99.90;;;;;;5111873;28;20020;-36
2021/09/11 09:41:51;;;;;;;15.95;14.32;;;20.20;99.90;;;;;;5112135;28;20028;-41
2021/09/11 09:44:19;;;;;;;15.00;13.32;;;20.20;99.90;;;;;;5112383;28;20026;-42
2021/09/11 09:46:47;;;;;;;17.95;16.25;;;20.20;99.90;;;;;;5100703;28;20029;-42
2021/09/11 09:49:22;;;;;;;17.02;15.23;;;20.30;99.90;;;;;;5088770;28;20467;-38
2021/09/11 09:51:48;;;;;;;16.73;14.98;;;20.30;99.90;;;;;;5112275;28;20024;-40
2021/09/11 09:54:15;;;;;;;16.60;14.90;;;20.30;99.90;;;;;;5112270;28;20576;-40
2021/09/11 09:56:41;;;;;;;16.23;14.50;;;20.30;99.90;;;;;;5112100;28;20107;-39
2021/09/11 09:59:08;;;;;;;16.55;14.90;;;20.30;99.90;;;;;;5110990;28;20436;-40
2021/09/11 10:01:36;;;;;;;18.40;15.63;;;20.40;99.90;;;;;;5112145;28;20020;-41
2021/09/11 10:04:15;;;;;;;18.25;16.25;;;20.40;99.90;;;;;;5108803;28;20047;-39
2021/09/11 10:06:43;;;;;;;18.00;14.57;;;20.40;99.90;;;;;;5110429;28;20110;-38
2021/09/11 10:09:13;;;;;;;17.13;14.65;;;20.40;99.90;;;;;;5110542;28;20047;-39
2021/09/11 10:11:42;;;;;;;16.15;14.50;;;20.40;99.90;;;;;;5087489;28;20043;-40
2021/09/11 10:14:13;;;;;;;17.20;15.02;;;20.50;99.90;;;;;;5109859;28;20043;-37
2021/09/11 10:16:41;;;;;;;16.67;14.07;;;20.50;99.90;;;;;;5102058;28;20044;-41
2021/09/11 10:19:21;;;;;;;16.42;14.75;;;20.60;99.90;;;;;;5092926;28;20016;-41
2021/09/11 10:22:07;;;;;;;17.90;14.82;;;20.60;99.90;;;;;;5103118;28;20052;-41
2021/09/11 10:24:34;;;;;;;16.73;14.93;;;20.60;99.90;;;;;;5100882;28;20031;-40
2021/09/11 10:27:09;;;;;;;19.75;17.08;;;20.50;99.90;;;;;;5100574;28;20063;-40
2021/09/11 10:29:43;;;;;;;19.80;17.65;;;20.40;99.90;;;;;;5075200;28;20484;-37
2021/09/11 10:32:25;;;;;;;19.15;17.17;;;20.40;99.90;;;;;;5110347;28;20023;-40
2021/09/11 10:35:03;;;;;;;17.20;15.50;;;20.40;99.90;;;;;;5110915;28;20024;-40
2021/09/11 10:37:37;;;;;;;22.52;19.67;;;20.40;99.90;;;;;;5106225;28;20028;-38
2021/09/11 10:40:18;;;;;;;19.38;17.38;;;20.40;99.90;;;;;;5110456;28;20173;-44
2021/09/11 10:42:58;;;;;;;19.95;17.75;;;20.40;99.90;;;;;;5107132;28;20027;-40
2021/09/11 10:45:53;;;;;;;17.70;15.88;;;20.50;99.90;;;;;;5110590;28;20065;-42
2021/09/11 10:48:36;;;;;;;15.00;13.48;;;20.40;99.90;;;;;;5054119;28;20037;-39
2021/09/11 10:51:17;;;;;;;16.75;14.98;;;20.50;99.90;;;;;;5110864;28;20382;-37
2021/09/11 10:54:04;;;;;;;17.20;15.32;;;20.50;99.90;;;;;;5110510;28;20024;-39
2021/09/11 10:56:33;;;;;;;16.92;15.30;;;20.50;99.90;;;;;;5110421;28;20035;-39
2021/09/11 10:59:14;;;;;;;15.85;14.27;;;20.50;99.90;;;;;;5110315;28;20027;-34
2021/09/11 11:02:10;;;;;;;18.13;15.30;;;20.60;99.90;;;;;;5110643;28;20084;-41
2021/09/11 11:04:56;;;;;;;17.23;15.50;;;20.70;99.90;;;;;;5110747;28;20043;-41
2021/09/11 11:07:30;;;;;;;15.70;14.02;;;20.80;99.90;;;;;;5109776;28;20019;-41
2021/09/11 11:09:58;;;;;;;17.67;15.55;;;20.80;99.90;;;;;;5109336;28;20387;-41
2021/09/11 11:12:31;;;;;;;17.90;15.82;;;20.90;99.90;;;;;;5109607;28;20016;-40
2021/09/11 11:15:00;;;;;;;15.98;14.23;;;21.00;99.90;;;;;;5107203;28;20406;-37
2021/09/11 11:17:27;;;;;;;17.67;15.65;;;21.10;99.90;;;;;;5107954;28;20147;-39
2021/09/11 11:19:54;;;;;;;19.70;16.42;;;21.30;99.90;;;;;;5108687;28;20024;-41
2021/09/11 11:22:38;;;;;;;21.70;19.25;;;21.40;99.90;;;;;;5109720;28;20073;-39
2021/09/11 11:25:12;;;;;;;17.70;15.90;;;21.60;99.90;;;;;;5108648;28;20047;-40
2021/09/11 11:27:38;;;;;;;16.52;14.90;;;21.70;99.90;;;;;;5107570;28;20019;-39
2021/09/11 11:30:07;;;;;;;15.88;14.38;;;21.70;99.90;;;;;;5109982;28;20043;-39
2021/09/11 11:32:35;;;;;;;15.88;13.93;;;21.80;99.90;;;;;;5105071;28;20106;-36
2021/09/11 11:35:02;;;;;;;18.55;16.70;;;21.80;99.90;;;;;;5100927;28;20018;-40
2021/09/11 11:37:34;;;;;;;22.30;19.92;;;22.00;99.90;;;;;;5110098;28;20012;-38
2021/09/11 11:40:12;;;;;;;18.40;16.50;;;22.10;99.90;;;;;;5099967;28;20040;-40
2021/09/11 11:42:41;;;;;;;17.90;16.10;;;22.20;99.90;;;;;;5094713;28;20055;-40
2021/09/11 11:45:11;;;;;;;19.33;15.45;;;22.30;99.90;;;;;;5084653;28;20032;-40
2021/09/11 11:48:12;;;;;;;15.98;14.38;;;22.40;99.90;;;;;;5080851;28;20011;-42
2021/09/11 11:50:39;;;;;;;15.15;13.60;;;22.40;99.90;;;;;;5094028;28;20016;-40
2021/09/11 11:53:13;;;;;;;14.73;13.25;;;22.40;99.90;;;;;;5109919;28;20118;-39
2021/09/11 11:55:45;;;;;;;21.20;19.00;;;22.50;99.90;;;;;;5108146;28;20100;-39
2021/09/11 11:58:18;;;;;;;18.05;16.42;;;22.70;99.90;;;;;;5107806;28;20069;-36
2021/09/11 12:00:46;;;;;;;21.30;18.67;;;22.80;99.90;;;;;;5099131;28;20036;-36
2021/09/11 12:03:32;;;;;;;17.48;15.40;;;22.70;99.90;;;;;;5098227;28;20031;-35
2021/09/11 12:05:58;;;;;;;18.05;16.25;;;22.70;99.90;;;;;;5090964;28;20023;-37
2021/09/11 12:08:23;;;;;;;14.27;12.98;;;22.60;99.90;;;;;;5110207;28;20028;-40
2021/09/11 12:10:53;;;;;;;14.10;12.63;;;22.70;99.90;;;;;;5108942;28;20016;-40
2021/09/11 12:13:20;;;;;;;15.00;13.35;;;22.70;99.90;;;;;;5109905;28;20122;-40
2021/09/11 12:15:47;;;;;;;16.55;14.73;;;22.80;99.90;;;;;;5107957;28;20059;-39
2021/09/11 12:18:14;;;;;;;14.77;13.38;;;22.70;99.90;;;;;;5108715;28;20471;-41
2021/09/11 12:20:53;;;;;;;11.95;10.75;;;22.50;99.90;;;;;;5108311;28;20510;-38
2021/09/11 12:23:30;;;;;;;8.88;7.95;;;22.20;99.90;;;;;;5101566;28;20024;-38
2021/09/11 12:26:06;;;;;;;10.38;9.38;;;21.70;99.90;;;;;;5104535;28;20179;-36
2021/09/11 12:28:42;;;;;;;11.45;10.27;;;21.40;99.90;;;;;;5079016;28;20082;-35
2021/09/11 12:31:20;;;;;;;11.25;10.15;;;21.10;99.90;;;;;;5094311;28;20455;-39
2021/09/11 12:33:54;;;;;;;12.63;11.38;;;21.00;99.90;;;;;;5108271;28;20467;-38
2021/09/11 12:36:30;;;;;;;10.10;9.10;;;20.90;99.90;;;;;;5110521;28;20023;-39
2021/09/11 12:39:00;;;;;;;11.00;9.93;;;20.70;99.90;;;;;;5108710;28;20120;-39
2021/09/11 12:41:25;;;;;;;9.40;8.60;;;20.70;99.90;;;;;;5109403;28;20119;-38